createdAt,value
2018-03-14T00:00:59.032Z,11.50
2018-03-14T00:03:26.554Z,11.50
2018-03-14T00:05:53.189Z,11.50
2018-03-14T00:08:20.229Z,11.50
2018-03-14T00:10:46.868Z,11.50
2018-03-14T00:15:42.224Z,11.50
2018-03-14T00:18:08.865Z,11.50
2018-03-14T00:20:35.909Z,11.50
2018-03-14T00:23:03.711Z,11.50
2018-03-14T00:25:31.138Z,11.50
2018-03-14T00:27:57.774Z,11.50
2018-03-14T00:30:24.829Z,11.50
2018-03-14T00:32:51.606Z,11.50
2018-03-14T00:35:18.261Z,11.50
2018-03-14T00:37:45.288Z,11.50
2018-03-14T00:40:11.928Z,11.50
2018-03-14T00:42:39.356Z,11.50
2018-03-14T00:45:06.036Z,11.50
2018-03-14T00:47:32.710Z,11.50
2018-03-14T00:49:59.358Z,11.50
2018-03-14T00:52:25.993Z,11.50
2018-03-14T00:54:52.630Z,11.50
2018-03-14T00:57:19.268Z,11.50
2018-03-14T00:59:46.287Z,11.50
2018-03-14T01:02:12.949Z,11.50
2018-03-14T01:04:39.603Z,11.50
2018-03-14T01:07:07.383Z,11.50
2018-03-14T01:09:34.780Z,11.50
2018-03-14T01:12:01.818Z,11.50
2018-03-14T01:14:28.461Z,11.50
2018-03-14T01:16:55.105Z,11.40
2018-03-14T01:19:22.208Z,11.40
2018-03-14T01:21:49.231Z,11.40
2018-03-14T01:24:16.342Z,11.40
2018-03-14T01:26:43.014Z,11.40
2018-03-14T01:29:10.417Z,11.40
2018-03-14T01:31:37.056Z,11.40
2018-03-14T01:34:03.733Z,11.40
2018-03-14T01:36:31.144Z,11.40
2018-03-14T01:38:57.785Z,11.40
2018-03-14T01:41:24.824Z,11.40
2018-03-14T01:43:51.471Z,11.40
2018-03-14T01:46:19.253Z,11.40
2018-03-14T01:48:46.287Z,11.40
2018-03-14T01:51:12.923Z,11.40
2018-03-14T01:53:40.365Z,11.40
2018-03-14T01:56:06.996Z,11.40
2018-03-14T01:58:33.624Z,11.40
2018-03-14T02:01:01.042Z,11.40
2018-03-14T02:03:27.672Z,11.40
2018-03-14T02:05:54.305Z,11.40
2018-03-14T02:08:21.339Z,11.40
2018-03-14T02:10:48.376Z,11.40
2018-03-14T02:13:15.006Z,11.50
2018-03-14T02:15:41.657Z,11.50
2018-03-14T02:20:37.890Z,11.50
2018-03-14T02:23:04.525Z,11.50
2018-03-14T02:25:31.186Z,11.50
2018-03-14T02:27:58.950Z,11.50
2018-03-14T02:30:25.982Z,11.40
2018-03-14T02:32:52.632Z,11.50
2018-03-14T02:35:19.669Z,11.50
2018-03-14T02:40:20.200Z,11.50
2018-03-14T02:42:47.237Z,11.50
2018-03-14T02:45:13.873Z,11.50
2018-03-14T02:47:41.647Z,11.50
2018-03-14T02:50:08.658Z,11.50
2018-03-14T02:52:35.311Z,11.50
2018-03-14T02:55:02.721Z,11.50
2018-03-14T02:57:30.186Z,11.50
2018-03-14T02:59:57.997Z,11.50
2018-03-14T03:02:25.011Z,11.50
2018-03-14T03:04:52.042Z,11.50
2018-03-14T03:07:19.059Z,11.50
2018-03-14T03:09:48.185Z,11.50
2018-03-14T03:12:15.611Z,11.50
2018-03-14T03:14:42.266Z,11.50
2018-03-14T03:17:10.420Z,11.50
2018-03-14T03:19:37.059Z,11.50
2018-03-14T03:22:03.704Z,11.50
2018-03-14T03:24:31.153Z,11.50
2018-03-14T03:26:57.778Z,11.50
2018-03-14T03:29:25.165Z,11.50
2018-03-14T03:31:51.795Z,11.50
2018-03-14T03:34:19.209Z,11.50
2018-03-14T03:36:46.263Z,11.50
2018-03-14T03:39:12.883Z,11.50
2018-03-14T03:41:39.915Z,11.50
2018-03-14T03:44:06.927Z,11.50
2018-03-14T03:46:33.603Z,11.50
2018-03-14T03:49:00.222Z,11.50
2018-03-14T03:51:26.846Z,11.50
2018-03-14T03:53:53.485Z,11.50
2018-03-14T03:56:20.145Z,11.50
2018-03-14T03:58:46.756Z,11.50
2018-03-14T04:01:13.766Z,11.50
2018-03-14T04:03:40.418Z,11.50
2018-03-14T04:06:07.037Z,11.50
2018-03-14T04:08:33.731Z,11.50
2018-03-14T04:11:00.752Z,11.50
2018-03-14T04:13:27.790Z,11.50
2018-03-14T04:15:55.196Z,11.50
2018-03-14T04:18:21.841Z,11.50
2018-03-14T04:20:49.225Z,11.50
2018-03-14T04:23:15.928Z,11.50
2018-03-14T04:25:43.310Z,11.50
2018-03-14T04:28:10.744Z,11.50
2018-03-14T04:30:37.794Z,11.50
2018-03-14T04:33:04.841Z,11.50
2018-03-14T04:35:31.482Z,11.50
2018-03-14T04:40:26.813Z,11.50
2018-03-14T04:42:53.441Z,11.50
2018-03-14T04:45:20.076Z,11.60
2018-03-14T04:47:46.716Z,11.50
2018-03-14T04:50:13.350Z,11.60
2018-03-14T04:55:08.418Z,11.50
2018-03-14T04:57:35.474Z,11.50
2018-03-14T05:00:02.875Z,11.60
2018-03-14T05:02:29.492Z,11.50
2018-03-14T05:04:56.119Z,11.50
2018-03-14T05:07:23.872Z,11.50
2018-03-14T05:09:50.904Z,11.50
2018-03-14T05:12:17.529Z,11.60
2018-03-14T05:14:44.149Z,11.50
2018-03-14T05:17:11.188Z,11.50
2018-03-14T05:19:38.693Z,11.50
2018-03-14T05:22:05.728Z,11.50
2018-03-14T05:24:32.734Z,11.60
2018-03-14T05:26:59.374Z,11.60
2018-03-14T05:29:26.003Z,11.50
2018-03-14T05:31:53.418Z,11.60
2018-03-14T05:34:20.037Z,11.50
2018-03-14T05:36:46.666Z,11.60
2018-03-14T05:39:14.062Z,11.60
2018-03-14T05:41:41.141Z,11.50
2018-03-14T05:44:07.767Z,11.60
2018-03-14T05:46:34.802Z,11.50
2018-03-14T05:49:02.564Z,11.60
2018-03-14T05:51:29.626Z,11.60
2018-03-14T05:53:56.250Z,11.50
2018-03-14T05:56:24.304Z,11.50
2018-03-14T05:58:50.920Z,11.50
2018-03-14T06:01:17.535Z,11.50
2018-03-14T06:08:49.114Z,11.50
2018-03-14T06:11:17.106Z,11.50
2018-03-14T06:13:43.760Z,11.60
2018-03-14T06:16:11.146Z,11.50
2018-03-14T06:18:37.779Z,11.60
2018-03-14T06:21:04.874Z,11.60
2018-03-14T06:23:32.279Z,11.50
2018-03-14T06:25:59.667Z,11.60
2018-03-14T06:28:27.081Z,11.50
2018-03-14T06:30:54.525Z,11.60
2018-03-14T06:33:21.153Z,11.50
2018-03-14T06:35:48.157Z,11.60
2018-03-14T06:38:14.777Z,11.60
2018-03-14T06:40:41.407Z,11.60
2018-03-14T06:43:08.041Z,11.50
2018-03-14T06:45:35.049Z,11.60
2018-03-14T06:48:02.056Z,11.60
2018-03-14T06:52:57.005Z,11.60
2018-03-14T06:55:23.657Z,11.60
2018-03-14T06:57:50.277Z,11.60
2018-03-14T07:00:17.304Z,11.60
2018-03-14T07:02:43.922Z,11.60
2018-03-14T07:05:10.575Z,11.50
2018-03-14T07:07:37.557Z,11.60
2018-03-14T07:10:04.602Z,11.60
2018-03-14T07:12:31.216Z,11.60
2018-03-14T07:14:57.848Z,11.60
2018-03-14T07:17:25.245Z,11.60
2018-03-14T07:19:52.290Z,11.60
2018-03-14T07:22:19.304Z,11.60
2018-03-14T07:24:47.071Z,11.60
2018-03-14T07:27:14.081Z,11.60
2018-03-14T07:29:41.474Z,11.60
2018-03-14T07:32:08.093Z,11.60
2018-03-14T07:34:35.476Z,11.60
2018-03-14T07:37:02.127Z,11.60
2018-03-14T07:39:28.750Z,11.60
2018-03-14T07:41:55.372Z,11.60
2018-03-14T07:44:21.995Z,11.60
2018-03-14T07:46:49.384Z,11.60
2018-03-14T07:49:16.767Z,11.60
2018-03-14T07:51:43.393Z,11.60
2018-03-14T07:54:10.781Z,11.60
2018-03-14T07:56:37.815Z,11.60
2018-03-14T07:59:04.481Z,11.60
2018-03-14T08:01:31.126Z,11.60
2018-03-14T08:03:58.225Z,11.60
2018-03-14T08:06:25.253Z,11.60
2018-03-14T08:08:51.895Z,11.60
2018-03-14T08:11:18.536Z,11.60
2018-03-14T08:13:45.303Z,11.60
2018-03-14T08:16:11.880Z,11.60
2018-03-14T08:18:39.268Z,11.60
2018-03-14T08:21:06.280Z,11.60
2018-03-14T08:23:34.593Z,11.60
2018-03-14T08:26:01.248Z,11.60
2018-03-14T08:28:27.847Z,11.60
2018-03-14T08:30:54.506Z,11.60
2018-03-14T08:33:21.139Z,11.60
2018-03-14T08:35:48.164Z,11.60
2018-03-14T08:38:14.824Z,11.60
2018-03-14T08:40:41.464Z,11.60
2018-03-14T08:43:08.510Z,11.60
2018-03-14T08:45:35.557Z,11.60
2018-03-14T08:48:02.169Z,11.60
2018-03-14T08:50:28.781Z,11.60
2018-03-14T08:52:55.802Z,11.60
2018-03-14T08:55:22.430Z,11.60
2018-03-14T08:57:49.465Z,11.60
2018-03-14T09:00:16.842Z,11.60
2018-03-14T09:02:43.516Z,11.60
2018-03-14T09:05:11.295Z,11.60
2018-03-14T09:07:37.918Z,11.60
2018-03-14T09:10:05.338Z,11.60
2018-03-14T09:12:32.398Z,11.60
2018-03-14T09:14:59.051Z,11.60
2018-03-14T09:17:26.064Z,11.60
2018-03-14T09:19:53.078Z,11.60
2018-03-14T09:22:19.736Z,11.60
2018-03-14T09:24:46.364Z,11.60
2018-03-14T09:27:13.762Z,11.60
2018-03-14T09:29:41.177Z,11.60
2018-03-14T09:37:04.738Z,11.60
2018-03-14T09:39:31.983Z,11.60
2018-03-14T09:41:58.995Z,11.60
2018-03-14T09:44:25.640Z,11.60
2018-03-14T09:46:52.261Z,11.60
2018-03-14T09:49:19.281Z,11.60
2018-03-14T09:51:45.904Z,11.60
2018-03-14T09:54:14.029Z,11.60
2018-03-14T09:56:41.044Z,11.60
2018-03-14T10:01:36.505Z,11.60
2018-03-14T10:04:03.150Z,11.60
2018-03-14T10:06:30.163Z,11.60
2018-03-14T10:08:56.808Z,11.60
2018-03-14T10:11:23.428Z,11.60
2018-03-14T10:13:50.465Z,11.60
2018-03-14T10:16:17.498Z,11.60
2018-03-14T10:18:44.112Z,11.60
2018-03-14T10:21:10.758Z,11.60
2018-03-14T10:23:37.382Z,11.60
2018-03-14T10:26:04.456Z,11.60
2018-03-14T10:28:31.069Z,11.60
2018-03-14T10:30:58.466Z,11.60
2018-03-14T10:33:25.476Z,11.70
2018-03-14T10:35:52.150Z,11.60
2018-03-14T10:38:18.766Z,11.60
2018-03-14T10:43:14.077Z,11.70
2018-03-14T10:45:40.691Z,11.70
2018-03-14T10:48:07.334Z,11.70
2018-03-14T10:50:33.949Z,11.70
2018-03-14T10:53:00.974Z,11.70
2018-03-14T10:55:27.593Z,11.70
2018-03-14T10:57:54.674Z,11.70
2018-03-14T11:00:26.706Z,11.70
2018-03-14T11:02:53.380Z,11.70
2018-03-14T11:05:20.765Z,11.70
2018-03-14T11:07:47.472Z,11.70
2018-03-14T11:10:14.043Z,11.70
2018-03-14T11:12:41.450Z,11.70
2018-03-14T11:15:08.082Z,11.70
2018-03-14T11:17:35.132Z,11.70
2018-03-14T11:20:02.142Z,11.70
2018-03-14T11:22:29.176Z,11.70
2018-03-14T11:24:55.812Z,11.70
2018-03-14T11:27:22.457Z,11.70
2018-03-14T11:29:49.081Z,11.70
2018-03-14T11:32:15.703Z,11.70
2018-03-14T11:34:42.329Z,11.70
2018-03-14T11:37:09.353Z,11.70
2018-03-14T11:39:35.994Z,11.70
2018-03-14T11:42:03.007Z,11.70
2018-03-14T11:44:30.034Z,11.70
2018-03-14T11:46:57.421Z,11.70
2018-03-14T11:49:24.449Z,11.70
2018-03-14T11:51:52.221Z,11.70
2018-03-14T11:54:19.255Z,11.70
2018-03-14T11:56:47.384Z,11.70
2018-03-14T11:59:14.416Z,11.70
2018-03-14T12:01:48.142Z,11.70
2018-03-14T12:04:15.230Z,11.70
2018-03-14T12:06:42.278Z,11.80
2018-03-14T12:09:09.701Z,11.80
2018-03-14T12:11:36.728Z,11.70
2018-03-14T12:14:04.861Z,11.80
2018-03-14T12:16:31.535Z,11.80
2018-03-14T12:18:58.545Z,11.80
2018-03-14T12:21:25.609Z,11.80
2018-03-14T12:23:52.628Z,11.80
2018-03-14T12:26:19.283Z,11.80
2018-03-14T12:28:46.325Z,11.80
2018-03-14T12:31:13.729Z,11.80
2018-03-14T12:33:40.391Z,11.80
2018-03-14T12:36:07.031Z,11.80
2018-03-14T12:38:33.642Z,11.80
2018-03-14T12:41:00.276Z,11.80
2018-03-14T12:43:27.989Z,11.80
2018-03-14T12:45:54.645Z,11.80
2018-03-14T12:48:22.037Z,11.80
2018-03-14T12:53:17.005Z,11.80
2018-03-14T12:55:44.022Z,11.80
2018-03-14T13:00:38.946Z,11.80
2018-03-14T13:03:05.558Z,11.80
2018-03-14T13:05:32.194Z,11.80
2018-03-14T13:07:59.587Z,11.80
2018-03-14T13:10:26.613Z,11.80
2018-03-14T13:12:53.262Z,11.80
2018-03-14T13:15:19.883Z,11.80
2018-03-14T13:17:46.934Z,11.80
2018-03-14T13:20:13.561Z,11.80
2018-03-14T13:22:40.612Z,11.80
2018-03-14T13:25:07.647Z,11.80
2018-03-14T13:27:34.282Z,11.80
2018-03-14T13:30:01.305Z,11.80
2018-03-14T13:32:28.316Z,11.80
2018-03-14T13:34:54.969Z,11.80
2018-03-14T13:37:21.987Z,11.80
2018-03-14T13:39:48.634Z,11.90
2018-03-14T13:42:15.646Z,11.80
2018-03-14T13:44:42.682Z,11.90
2018-03-14T13:47:10.454Z,11.90
2018-03-14T13:49:37.859Z,11.90
2018-03-14T13:52:04.480Z,11.90
2018-03-14T13:54:36.546Z,11.90
2018-03-14T13:57:03.168Z,11.90
2018-03-14T13:59:30.183Z,11.90
2018-03-14T14:01:57.193Z,11.90
2018-03-14T14:04:23.806Z,11.90
2018-03-14T14:06:50.440Z,11.90
2018-03-14T14:09:17.073Z,11.90
2018-03-14T14:11:44.082Z,11.90
2018-03-14T14:14:10.701Z,11.90
2018-03-14T14:16:38.091Z,11.90
2018-03-14T14:19:05.114Z,11.90
2018-03-14T14:21:32.148Z,11.90
2018-03-14T14:23:58.858Z,11.90
2018-03-14T14:26:25.488Z,11.90
2018-03-14T14:28:52.113Z,11.90
2018-03-14T14:31:18.725Z,11.90
2018-03-14T14:33:45.798Z,11.90
2018-03-14T14:36:12.418Z,11.90
2018-03-14T14:38:39.429Z,11.90
2018-03-14T14:41:06.462Z,11.90
2018-03-14T14:43:33.470Z,12.00
2018-03-14T14:46:00.483Z,12.00
2018-03-14T14:48:27.100Z,12.00
2018-03-14T14:50:54.174Z,12.00
2018-03-14T14:53:20.796Z,12.00
2018-03-14T14:55:47.816Z,12.00
2018-03-14T14:58:14.461Z,12.00
2018-03-14T15:00:41.083Z,12.00
2018-03-14T15:03:07.723Z,12.00
2018-03-14T15:05:42.039Z,12.00
2018-03-14T15:08:09.429Z,12.00
2018-03-14T15:10:36.047Z,12.00
2018-03-14T15:13:03.434Z,12.00
2018-03-14T15:15:30.856Z,12.00
2018-03-14T15:17:57.460Z,12.00
2018-03-14T15:20:24.469Z,12.00
2018-03-14T15:22:51.484Z,12.00
2018-03-14T15:25:18.494Z,12.00
2018-03-14T15:27:46.551Z,12.00
2018-03-14T15:30:13.166Z,12.00
2018-03-14T15:32:40.198Z,12.00
2018-03-14T15:35:06.813Z,12.10
2018-03-14T15:37:33.439Z,12.10
2018-03-14T15:40:00.861Z,12.10
2018-03-14T15:42:27.875Z,12.10
2018-03-14T15:44:54.536Z,12.10
2018-03-14T15:47:21.149Z,12.10
2018-03-14T15:49:47.760Z,12.10
2018-03-14T15:52:14.776Z,12.10
2018-03-14T15:54:41.452Z,12.10
2018-03-14T15:57:08.498Z,12.10
2018-03-14T15:59:35.862Z,12.10
2018-03-14T16:02:02.885Z,12.10
2018-03-14T16:04:30.267Z,12.10
2018-03-14T16:06:56.914Z,12.10
2018-03-14T16:09:23.541Z,12.10
2018-03-14T16:11:50.166Z,12.20
2018-03-14T16:14:16.782Z,12.20
2018-03-14T16:16:43.794Z,12.20
2018-03-14T16:21:40.940Z,12.10
2018-03-14T16:24:07.951Z,12.20
2018-03-14T16:26:35.334Z,12.20
2018-03-14T16:29:01.954Z,12.20
2018-03-14T16:31:28.561Z,12.20
2018-03-14T16:33:55.947Z,12.20
2018-03-14T16:36:22.611Z,12.20
2018-03-14T16:38:49.624Z,12.20
2018-03-14T16:41:16.695Z,12.20
2018-03-14T16:46:11.674Z,12.20
2018-03-14T16:48:38.684Z,12.20
2018-03-14T16:51:05.305Z,12.20
2018-03-14T16:53:32.737Z,12.20
2018-03-14T16:55:59.352Z,12.20
2018-03-14T16:58:26.737Z,12.20
2018-03-14T17:00:53.758Z,12.20
2018-03-14T17:03:20.381Z,12.20
2018-03-14T17:05:47.010Z,12.20
2018-03-14T17:08:13.644Z,12.20
2018-03-14T17:10:40.676Z,12.20
2018-03-14T17:13:07.298Z,12.20
2018-03-14T17:15:34.430Z,12.20
2018-03-14T17:18:01.437Z,12.20
2018-03-14T17:20:36.221Z,12.20
2018-03-14T17:23:02.838Z,12.20
2018-03-14T17:25:30.220Z,12.20
2018-03-14T17:27:56.843Z,12.20
2018-03-14T17:30:23.505Z,12.20
2018-03-14T17:32:50.125Z,12.20
2018-03-14T17:35:16.758Z,12.10
2018-03-14T17:37:43.429Z,12.20
2018-03-14T17:40:10.067Z,12.10
2018-03-14T17:42:36.698Z,12.20
2018-03-14T17:45:03.731Z,12.20
2018-03-14T17:47:31.127Z,12.10
2018-03-14T17:49:57.782Z,12.10
2018-03-14T17:52:24.814Z,12.10
2018-03-14T17:54:51.437Z,12.10
2018-03-14T17:57:18.076Z,12.10
2018-03-14T17:59:44.696Z,12.10
2018-03-14T18:02:11.340Z,12.10
2018-03-14T18:04:38.010Z,12.10
2018-03-14T18:07:04.690Z,12.10
2018-03-14T18:09:31.328Z,12.10
2018-03-14T18:11:58.353Z,12.10
2018-03-14T18:14:25.777Z,12.10
2018-03-14T18:16:52.421Z,12.10
2018-03-14T18:19:19.047Z,12.10
2018-03-14T18:21:46.083Z,12.10
2018-03-14T18:24:13.463Z,12.10
2018-03-14T18:26:40.492Z,12.10
2018-03-14T18:29:07.882Z,12.10
2018-03-14T18:31:34.492Z,12.10
2018-03-14T18:34:01.112Z,12.10
2018-03-14T18:36:28.512Z,12.00
2018-03-14T18:38:55.177Z,12.10
2018-03-14T18:41:22.573Z,12.00
2018-03-14T18:43:49.600Z,12.00
2018-03-14T18:46:16.627Z,12.00
2018-03-14T18:48:43.664Z,12.00
2018-03-14T18:51:10.723Z,12.00
2018-03-14T18:53:37.353Z,12.00
2018-03-14T18:56:03.975Z,12.00
2018-03-14T18:58:31.013Z,12.00
2018-03-14T19:00:58.403Z,12.00
2018-03-14T19:03:25.805Z,12.00
2018-03-14T19:05:52.820Z,12.00
2018-03-14T19:08:19.445Z,12.00
2018-03-14T19:10:46.470Z,12.00
2018-03-14T19:13:13.166Z,12.00
2018-03-14T19:15:39.826Z,12.00
2018-03-14T19:18:06.874Z,12.00
2018-03-14T19:20:33.493Z,12.00
2018-03-14T19:23:00.195Z,12.00
2018-03-14T19:25:27.225Z,12.00
2018-03-14T19:27:54.241Z,12.00
2018-03-14T19:30:21.269Z,12.00
2018-03-14T19:32:49.019Z,11.90
2018-03-14T19:35:15.646Z,12.00
2018-03-14T19:37:42.326Z,11.90
2018-03-14T19:40:08.990Z,11.90
2018-03-14T19:42:35.617Z,11.90
2018-03-14T19:49:58.901Z,11.90
2018-03-14T19:52:25.522Z,11.90
2018-03-14T19:54:52.180Z,11.90
2018-03-14T19:57:19.197Z,11.90
2018-03-14T19:59:46.642Z,11.90
2018-03-14T20:02:13.652Z,11.90
2018-03-14T20:04:40.275Z,11.90
2018-03-14T20:07:06.909Z,11.90
2018-03-14T20:09:33.915Z,11.90
2018-03-14T20:12:00.933Z,11.90
2018-03-14T20:14:27.957Z,11.90
2018-03-14T20:16:55.357Z,11.90
2018-03-14T20:19:21.983Z,11.90
2018-03-14T20:21:48.618Z,11.90
2018-03-14T20:24:16.012Z,11.90
2018-03-14T20:26:43.093Z,11.90
2018-03-14T20:29:10.121Z,11.90
2018-03-14T20:31:36.742Z,11.80
2018-03-14T20:34:03.421Z,11.80
2018-03-14T20:36:30.804Z,11.80
2018-03-14T20:38:57.859Z,11.80
2018-03-14T20:41:24.853Z,11.80
2018-03-14T20:43:51.482Z,11.80
2018-03-14T20:46:18.529Z,11.80
2018-03-14T20:48:45.918Z,11.80
2018-03-14T20:51:12.552Z,11.80
2018-03-14T20:53:39.560Z,11.80
2018-03-14T20:56:06.630Z,11.80
2018-03-14T20:58:33.226Z,11.80
2018-03-14T21:00:59.850Z,11.80
2018-03-14T21:03:26.895Z,11.80
2018-03-14T21:05:53.525Z,11.80
2018-03-14T21:08:20.175Z,11.80
2018-03-14T21:10:54.274Z,11.80
2018-03-14T21:13:21.297Z,11.80
2018-03-14T21:15:47.921Z,11.80
2018-03-14T21:18:14.607Z,11.80
2018-03-14T21:20:41.255Z,11.80
2018-03-14T21:23:07.896Z,11.70
2018-03-14T21:25:34.519Z,11.80
2018-03-14T21:28:01.141Z,11.80
2018-03-14T21:30:28.558Z,11.70
2018-03-14T21:32:55.963Z,11.70
2018-03-14T21:35:22.598Z,11.70
2018-03-14T21:37:49.602Z,11.70
2018-03-14T21:40:17.140Z,11.70
2018-03-14T21:42:44.158Z,11.70
2018-03-14T21:45:11.217Z,11.70
2018-03-14T21:47:37.841Z,11.70
2018-03-14T21:50:04.483Z,11.70
2018-03-14T21:52:31.502Z,11.70
2018-03-14T21:54:58.534Z,11.70
2018-03-14T21:57:25.153Z,11.70
2018-03-14T21:59:52.169Z,11.70
2018-03-14T22:02:18.787Z,11.70
2018-03-14T22:04:46.169Z,11.70
2018-03-14T22:07:12.789Z,11.70
2018-03-14T22:09:39.409Z,11.70
2018-03-14T22:12:06.536Z,11.70
2018-03-14T22:14:33.102Z,11.70
2018-03-14T22:16:59.770Z,11.70
2018-03-14T22:19:26.790Z,11.70
2018-03-14T22:21:54.210Z,11.70
2018-03-14T22:24:20.831Z,11.70
2018-03-14T22:26:48.231Z,11.70
2018-03-14T22:29:15.415Z,11.70
2018-03-14T22:31:42.063Z,11.70
2018-03-14T22:34:08.683Z,11.70
2018-03-14T22:36:42.287Z,11.70
2018-03-14T22:39:08.921Z,11.70
2018-03-14T22:41:36.325Z,11.70
2018-03-14T22:44:02.942Z,11.60
2018-03-14T22:46:29.565Z,11.70
2018-03-14T22:48:56.193Z,11.60
2018-03-14T22:51:22.817Z,11.60
2018-03-14T22:53:49.465Z,11.60
2018-03-14T22:56:16.473Z,11.60
2018-03-14T22:58:43.132Z,11.60
2018-03-14T23:01:10.154Z,11.60
2018-03-14T23:03:36.782Z,11.60
2018-03-14T23:06:03.402Z,11.60
2018-03-14T23:08:30.013Z,11.60
2018-03-14T23:13:24.947Z,11.60
2018-03-14T23:15:51.608Z,11.60
2018-03-14T23:18:18.223Z,11.60
2018-03-14T23:20:44.840Z,11.60
2018-03-14T23:23:11.888Z,11.60
2018-03-14T23:25:38.529Z,11.60
2018-03-14T23:28:05.580Z,11.60
2018-03-14T23:30:32.224Z,11.60
2018-03-14T23:32:59.255Z,11.60
2018-03-14T23:35:26.684Z,11.60
2018-03-14T23:37:53.308Z,11.60
2018-03-14T23:40:19.928Z,11.60
2018-03-14T23:42:47.323Z,11.60
2018-03-14T23:45:14.347Z,11.60
2018-03-14T23:47:40.962Z,11.60
2018-03-14T23:50:08.354Z,11.60
2018-03-14T23:52:34.975Z,11.60
2018-03-14T23:55:01.992Z,11.60
2018-03-14T23:57:29.379Z,11.60
2018-03-14T23:59:56.393Z,11.60
